Time;durP1;ratioP1;P1;durP2;ratioP2;P2;SDS_P1;SDS_P2;PMS_P1;PMS_P2;Temp;Humidity;BMP_temperature;BMP_pressure;BME280_temperature;BME280_humidity;BME280_pressure;Samples;Min_cycle;Max_cycle;Signal;HPM_P1;HPM_P2
2022/07/15 00:02:19;;;;;;;4.83;2.00;;;16.50;99.90;;;;;;5072214;28;20491;-74
2022/07/15 00:04:46;;;;;;;5.00;1.47;;;16.40;99.90;;;;;;5074934;28;20948;-74
2022/07/15 00:07:13;;;;;;;1.80;1.60;;;16.40;99.90;;;;;;5075886;28;20453;-74
2022/07/15 00:12:24;;;;;;;2.47;2.03;;;16.30;99.90;;;;;;5076131;28;20521;-75
2022/07/15 00:14:51;;;;;;;1.70;1.60;;;16.30;99.90;;;;;;5075780;28;20429;-74
2022/07/15 00:17:19;;;;;;;3.00;1.90;;;16.10;99.90;;;;;;5075598;28;20447;-74
2022/07/15 00:19:46;;;;;;;2.13;1.50;;;16.10;99.90;;;;;;5075630;28;20959;-75
2022/07/15 00:22:13;;;;;;;1.30;1.20;;;16.10;99.90;;;;;;5075683;28;20465;-74
2022/07/15 00:24:40;;;;;;;5.73;1.80;;;16.10;99.90;;;;;;5075425;28;20870;-75
2022/07/15 00:27:06;;;;;;;2.00;1.80;;;16.00;99.90;;;;;;5075417;28;20451;-74
2022/07/15 00:29:33;;;;;;;2.20;1.77;;;16.20;99.90;;;;;;5075821;28;20466;-75
2022/07/15 00:32:00;;;;;;;2.00;1.40;;;16.30;99.90;;;;;;5075416;28;20506;-74
2022/07/15 00:34:28;;;;;;;1.97;1.67;;;16.20;99.90;;;;;;5075390;28;20454;-74
2022/07/15 00:36:55;;;;;;;1.73;1.63;;;16.00;99.90;;;;;;5075413;28;20452;-74
2022/07/15 00:39:22;;;;;;;2.70;1.50;;;16.00;99.90;;;;;;5075558;28;20784;-74
2022/07/15 00:41:48;;;;;;;3.00;1.70;;;16.00;99.90;;;;;;5075447;28;20444;-75
2022/07/15 00:44:15;;;;;;;3.43;1.87;;;16.00;99.90;;;;;;5075169;28;20480;-75
2022/07/15 00:46:42;;;;;;;6.47;1.53;;;15.80;99.90;;;;;;5075246;28;20441;-75
2022/07/15 00:49:11;;;;;;;4.07;1.47;;;15.90;99.90;;;;;;5075041;28;20444;-74
2022/07/15 00:51:42;;;;;;;3.20;1.83;;;16.00;99.90;;;;;;5075221;28;20458;-74
2022/07/15 00:54:10;;;;;;;1.87;1.50;;;15.90;99.90;;;;;;5075150;28;20453;-74
2022/07/15 00:56:41;;;;;;;5.23;1.40;;;15.90;99.90;;;;;;5075039;28;20444;-74
2022/07/15 00:59:08;;;;;;;2.40;1.80;;;15.90;99.90;;;;;;5074962;28;20463;-74
2022/07/15 01:01:35;;;;;;;2.23;2.03;;;15.80;99.90;;;;;;5075053;28;20812;-74
2022/07/15 01:04:03;;;;;;;3.47;1.63;;;15.80;99.90;;;;;;5075110;28;20572;-74
2022/07/15 01:06:31;;;;;;;3.37;1.67;;;15.80;99.90;;;;;;5075010;28;20821;-75
2022/07/15 01:08:59;;;;;;;3.83;1.77;;;15.70;99.90;;;;;;5075098;28;20479;-74
2022/07/15 01:11:26;;;;;;;2.53;1.70;;;15.60;99.90;;;;;;5075495;28;20502;-75
2022/07/15 01:13:54;;;;;;;5.20;2.40;;;15.60;99.90;;;;;;5075843;28;20990;-74
2022/07/15 01:16:21;;;;;;;5.70;2.07;;;15.40;99.90;;;;;;5074683;28;20451;-74
2022/07/15 01:18:48;;;;;;;6.00;3.23;;;15.40;99.90;;;;;;5074748;28;20445;-75
2022/07/15 01:21:16;;;;;;;4.43;2.97;;;15.30;99.90;;;;;;5074501;28;20448;-74
2022/07/15 01:23:43;;;;;;;4.13;2.33;;;15.50;99.90;;;;;;5074336;28;20540;-74
2022/07/15 01:26:11;;;;;;;4.33;2.10;;;15.40;99.90;;;;;;5074430;28;20523;-74
2022/07/15 01:28:38;;;;;;;3.07;1.53;;;15.50;99.90;;;;;;5074115;28;20453;-75
2022/07/15 01:31:05;;;;;;;5.30;1.73;;;15.30;99.90;;;;;;5074387;28;20456;-76
2022/07/15 01:33:32;;;;;;;2.60;1.97;;;15.30;99.90;;;;;;5074369;28;20467;-75
2022/07/15 01:36:00;;;;;;;4.07;1.50;;;15.40;99.90;;;;;;5074302;28;20445;-76
2022/07/15 01:38:29;;;;;;;2.60;1.60;;;15.30;99.90;;;;;;5074172;28;20516;-75
2022/07/15 01:40:56;;;;;;;3.33;1.60;;;15.30;99.90;;;;;;5074245;28;20441;-75
2022/07/15 01:43:23;;;;;;;4.70;1.67;;;15.20;99.90;;;;;;5074157;28;20484;-75
2022/07/15 01:45:50;;;;;;;3.00;1.83;;;15.20;99.90;;;;;;5074289;28;20444;-75
2022/07/15 01:51:02;;;;;;;2.90;1.47;;;15.20;99.90;;;;;;5074512;28;20400;-75
2022/07/15 01:53:30;;;;;;;5.03;1.70;;;15.00;99.90;;;;;;5073911;28;20465;-75
2022/07/15 01:55:57;;;;;;;4.37;2.30;;;15.00;99.90;;;;;;5073842;28;20816;-74
2022/07/15 01:58:24;;;;;;;3.30;2.23;;;14.90;99.90;;;;;;5073875;28;20449;-74
2022/07/15 02:00:51;;;;;;;2.80;1.50;;;14.90;99.90;;;;;;5073888;28;20436;-74
2022/07/15 02:03:17;;;;;;;6.37;2.00;;;14.90;99.90;;;;;;5073958;28;20541;-74
2022/07/15 02:05:44;;;;;;;6.87;1.73;;;14.90;99.90;;;;;;5073306;28;20445;-76
2022/07/15 02:08:11;;;;;;;2.27;2.07;;;14.80;99.90;;;;;;5073516;28;20452;-74
2022/07/15 02:10:42;;;;;;;5.03;1.63;;;14.80;99.90;;;;;;5073610;28;20449;-75
2022/07/15 02:13:09;;;;;;;4.70;2.60;;;14.70;99.90;;;;;;5073252;28;20972;-74
2022/07/15 02:15:36;;;;;;;5.77;2.07;;;14.80;99.90;;;;;;5073787;28;20456;-75
2022/07/15 02:18:03;;;;;;;4.20;1.67;;;14.80;99.90;;;;;;5073527;28;20440;-74
2022/07/15 02:20:31;;;;;;;3.93;1.80;;;14.90;99.90;;;;;;5073144;28;20460;-75
2022/07/15 02:22:58;;;;;;;4.67;1.90;;;14.80;99.90;;;;;;5073378;28;20465;-75
2022/07/15 02:25:26;;;;;;;4.03;2.00;;;14.70;99.90;;;;;;5073187;28;20547;-75
2022/07/15 02:27:57;;;;;;;4.17;1.83;;;14.70;99.90;;;;;;5073229;28;20482;-74
2022/07/15 02:30:25;;;;;;;3.20;1.70;;;14.70;99.90;;;;;;5073448;28;20457;-74
2022/07/15 02:32:52;;;;;;;1.70;1.53;;;14.80;99.90;;;;;;5073227;28;20492;-74
2022/07/15 02:35:19;;;;;;;3.70;1.97;;;14.70;99.90;;;;;;5073473;28;20445;-75
2022/07/15 02:37:45;;;;;;;3.23;1.70;;;14.60;99.90;;;;;;5073180;28;20456;-74
2022/07/15 02:40:13;;;;;;;2.30;1.83;;;14.60;99.90;;;;;;5072988;28;20447;-75
2022/07/15 02:42:40;;;;;;;4.53;1.90;;;14.60;99.90;;;;;;5073135;28;20475;-75
2022/07/15 02:45:08;;;;;;;7.47;3.27;;;14.50;99.90;;;;;;5073202;28;20820;-74
2022/07/15 02:47:35;;;;;;;5.33;1.50;;;14.40;99.90;;;;;;5073891;28;20476;-74
2022/07/15 02:50:02;;;;;;;4.50;1.80;;;14.50;99.90;;;;;;5073107;28;20464;-75
2022/07/15 02:52:29;;;;;;;3.20;2.07;;;14.60;99.90;;;;;;5073369;28;20820;-75
2022/07/15 02:54:56;;;;;;;3.30;1.60;;;14.40;99.90;;;;;;5072910;28;20445;-74
2022/07/15 02:57:22;;;;;;;3.20;1.60;;;14.40;99.90;;;;;;5072908;28;20528;-74
2022/07/15 02:59:49;;;;;;;9.10;3.03;;;14.40;99.90;;;;;;5072805;28;20811;-74
2022/07/15 03:02:17;;;;;;;8.10;2.47;;;14.50;99.90;;;;;;5072805;28;20476;-74
2022/07/15 03:04:44;;;;;;;2.90;1.80;;;14.40;99.90;;;;;;5072536;28;20546;-76
2022/07/15 03:07:12;;;;;;;4.83;2.30;;;14.40;99.90;;;;;;5072861;28;20448;-75
2022/07/15 03:09:39;;;;;;;2.60;1.60;;;14.40;99.90;;;;;;5072658;28;20961;-75
2022/07/15 03:12:06;;;;;;;3.97;2.33;;;14.20;99.90;;;;;;5073306;28;20803;-75
2022/07/15 03:14:33;;;;;;;3.40;1.80;;;14.30;99.90;;;;;;5073481;28;20444;-75
2022/07/15 03:17:00;;;;;;;4.90;2.03;;;14.20;99.90;;;;;;5072598;28;20445;-75
2022/07/15 03:19:28;;;;;;;3.67;1.53;;;14.20;99.90;;;;;;5072589;28;20449;-74
2022/07/15 03:21:54;;;;;;;4.70;2.50;;;14.30;99.90;;;;;;5072727;28;20452;-75
2022/07/15 03:24:21;;;;;;;4.83;1.80;;;14.30;99.90;;;;;;5072505;28;20469;-75
2022/07/15 03:26:48;;;;;;;2.93;2.00;;;14.20;99.90;;;;;;5073646;28;20456;-74
2022/07/15 03:29:15;;;;;;;5.17;2.03;;;14.20;99.90;;;;;;5073860;28;20817;-75
2022/07/15 03:31:42;;;;;;;6.30;2.10;;;14.10;99.90;;;;;;5074757;28;20959;-74
2022/07/15 03:34:09;;;;;;;5.23;1.87;;;14.10;99.90;;;;;;5072629;28;20464;-74
2022/07/15 03:36:38;;;;;;;3.67;1.70;;;14.10;99.90;;;;;;5072563;28;20817;-75
2022/07/15 03:39:05;;;;;;;4.03;2.60;;;14.10;99.90;;;;;;5074072;28;20452;-75
2022/07/15 03:41:31;;;;;;;3.30;2.13;;;14.10;99.90;;;;;;5076315;28;20988;-74
2022/07/15 03:43:59;;;;;;;19.10;10.67;;;14.00;99.90;;;;;;5076218;28;20480;-76
2022/07/15 03:46:25;;;;;;;6.50;2.80;;;14.10;99.90;;;;;;5075972;28;20977;-75
2022/07/15 03:48:52;;;;;;;3.80;2.13;;;14.10;99.90;;;;;;5076331;28;20502;-74
2022/07/15 03:51:19;;;;;;;11.50;4.33;;;14.10;99.90;;;;;;5076488;28;20448;-74
2022/07/15 03:53:47;;;;;;;7.00;3.53;;;14.10;99.90;;;;;;5076296;28;20571;-75
2022/07/15 03:56:14;;;;;;;3.47;2.50;;;14.10;99.90;;;;;;5076116;28;20445;-75
2022/07/15 03:58:41;;;;;;;7.87;2.57;;;14.10;99.90;;;;;;5076140;28;20834;-75
2022/07/15 04:01:08;;;;;;;10.27;6.63;;;14.00;99.90;;;;;;5076468;28;20463;-75
2022/07/15 04:03:35;;;;;;;5.73;3.40;;;14.00;99.90;;;;;;5075496;28;20468;-75
2022/07/15 04:06:02;;;;;;;8.90;3.60;;;14.10;99.90;;;;;;5076037;28;20448;-75
2022/07/15 04:08:28;;;;;;;11.10;5.97;;;14.20;99.90;;;;;;5076019;28;20440;-75
2022/07/15 04:10:57;;;;;;;24.00;16.47;;;14.20;99.90;;;;;;5075944;28;20456;-74
2022/07/15 04:13:24;;;;;;;11.83;7.00;;;14.30;99.90;;;;;;5090629;22;20507;-78
2022/07/15 04:15:51;;;;;;;5.90;3.10;;;14.30;99.90;;;;;;5076466;28;20452;-77
2022/07/15 04:18:18;;;;;;;3.00;2.40;;;14.30;99.90;;;;;;5077190;28;21084;-78
2022/07/15 04:20:45;;;;;;;7.63;4.90;;;14.20;99.90;;;;;;5076404;28;20837;-77
2022/07/15 04:23:12;;;;;;;4.63;3.00;;;14.30;99.90;;;;;;5076243;28;20805;-77
2022/07/15 04:25:39;;;;;;;4.97;3.37;;;14.20;99.90;;;;;;5076158;28;20480;-77
2022/07/15 04:28:08;;;;;;;6.00;3.13;;;14.20;99.90;;;;;;5077413;28;20444;-78
2022/07/15 04:30:35;;;;;;;6.20;3.20;;;14.30;99.90;;;;;;5076492;28;20939;-77
2022/07/15 04:33:02;;;;;;;6.43;2.27;;;14.30;99.90;;;;;;5076354;28;20487;-77
2022/07/15 04:35:29;;;;;;;11.90;4.60;;;14.40;99.90;;;;;;5076285;28;20456;-77
2022/07/15 04:37:55;;;;;;;5.03;3.80;;;14.30;99.90;;;;;;5076397;28;20852;-77
2022/07/15 04:40:22;;;;;;;8.57;2.13;;;14.30;99.90;;;;;;5079443;28;20823;-77
2022/07/15 04:42:49;;;;;;;4.93;1.93;;;14.30;99.90;;;;;;5079314;28;20557;-77
2022/07/15 04:45:17;;;;;;;3.20;2.20;;;14.30;99.90;;;;;;5076455;28;20476;-77
2022/07/15 04:47:44;;;;;;;12.67;5.87;;;14.30;99.90;;;;;;5076208;28;20448;-78
2022/07/15 04:52:55;;;;;;;8.67;3.87;;;14.50;99.90;;;;;;5075506;28;20443;-78
2022/07/15 04:55:22;;;;;;;6.77;5.50;;;14.50;99.90;;;;;;5075847;28;20448;-78
2022/07/15 04:57:48;;;;;;;4.60;2.40;;;14.50;99.90;;;;;;5075789;28;20444;-78
2022/07/15 05:00:17;;;;;;;15.07;9.33;;;14.50;99.90;;;;;;5075621;28;20451;-78
2022/07/15 05:02:43;;;;;;;14.23;8.53;;;14.60;99.90;;;;;;5075827;28;20480;-78
2022/07/15 05:05:10;;;;;;;9.77;6.20;;;14.80;99.90;;;;;;5075993;28;20477;-77
2022/07/15 05:07:37;;;;;;;9.07;4.20;;;14.90;99.90;;;;;;5075219;28;20449;-78
2022/07/15 05:10:05;;;;;;;15.40;8.03;;;15.00;99.90;;;;;;5075582;28;20506;-77
2022/07/15 05:12:32;;;;;;;5.00;2.17;;;15.00;99.90;;;;;;5076409;28;20487;-78
2022/07/15 05:14:58;;;;;;;5.73;2.93;;;14.90;99.90;;;;;;5076677;28;20430;-78
2022/07/15 05:17:27;;;;;;;5.87;3.20;;;14.70;99.90;;;;;;5076399;28;20445;-78
2022/07/15 05:19:53;;;;;;;3.00;1.83;;;14.60;99.90;;;;;;5075753;28;20821;-77
2022/07/15 05:22:21;;;;;;;7.23;3.43;;;14.70;99.90;;;;;;5075426;28;20445;-77
2022/07/15 05:24:47;;;;;;;3.93;2.17;;;14.70;99.90;;;;;;5075728;28;20563;-77
2022/07/15 05:27:14;;;;;;;2.50;1.80;;;14.80;99.90;;;;;;5075651;28;20467;-77
2022/07/15 05:29:42;;;;;;;5.13;1.73;;;14.60;99.90;;;;;;5075282;28;20449;-77
2022/07/15 05:32:09;;;;;;;7.63;2.63;;;14.70;99.90;;;;;;5076057;28;20492;-77
2022/07/15 05:34:37;;;;;;;6.73;2.03;;;14.90;99.90;;;;;;5075101;28;20452;-78
2022/07/15 05:37:04;;;;;;;10.07;1.90;;;14.90;99.90;;;;;;5074647;28;20452;-77
2022/07/15 05:39:30;;;;;;;3.03;2.07;;;15.30;99.90;;;;;;5076839;28;20448;-78
2022/07/15 05:41:58;;;;;;;5.00;2.07;;;15.10;99.90;;;;;;5080733;28;20452;-77
2022/07/15 05:44:25;;;;;;;3.23;2.07;;;15.10;99.90;;;;;;5082036;28;20535;-78
2022/07/15 05:46:51;;;;;;;3.57;2.70;;;15.10;99.90;;;;;;5075547;28;20794;-77
2022/07/15 05:49:18;;;;;;;5.60;1.80;;;15.20;99.90;;;;;;5074952;28;20970;-78
2022/07/15 05:51:46;;;;;;;3.17;2.47;;;15.30;99.90;;;;;;5074428;28;20452;-78
2022/07/15 05:54:14;;;;;;;5.03;1.83;;;15.30;99.90;;;;;;5074710;28;20464;-77
2022/07/15 05:56:42;;;;;;;4.10;2.30;;;15.40;99.90;;;;;;5076999;28;20441;-78
2022/07/15 05:59:09;;;;;;;2.93;2.10;;;15.50;99.90;;;;;;5078342;28;20826;-77
2022/07/15 06:01:35;;;;;;;4.00;2.23;;;15.50;99.90;;;;;;5076873;28;20807;-78
2022/07/15 06:04:02;;;;;;;5.03;2.00;;;15.50;99.90;;;;;;5075632;28;20465;-78
2022/07/15 06:06:30;;;;;;;5.37;2.47;;;15.50;99.90;;;;;;5077172;28;20511;-77
2022/07/15 06:08:58;;;;;;;3.00;1.87;;;15.50;99.90;;;;;;5074655;28;20457;-77
2022/07/15 06:11:24;;;;;;;6.87;2.60;;;15.50;99.90;;;;;;5074489;28;20471;-77
2022/07/15 06:13:51;;;;;;;3.67;2.10;;;15.40;99.90;;;;;;5074163;28;20480;-78
2022/07/15 06:16:18;;;;;;;5.03;2.17;;;15.60;99.90;;;;;;5074051;28;20445;-79
2022/07/15 06:18:45;;;;;;;4.73;2.00;;;15.80;99.90;;;;;;5074109;28;20524;-77
2022/07/15 06:21:12;;;;;;;8.13;1.93;;;15.90;99.90;;;;;;5075287;28;20445;-78
2022/07/15 06:23:39;;;;;;;7.53;2.80;;;16.00;99.90;;;;;;5075111;28;20511;-77
2022/07/15 06:26:07;;;;;;;3.20;1.47;;;15.90;99.90;;;;;;5074293;28;20480;-77
2022/07/15 06:28:34;;;;;;;4.80;1.90;;;15.90;99.90;;;;;;5074404;28;20447;-77
2022/07/15 06:31:01;;;;;;;8.40;2.33;;;15.90;99.90;;;;;;5077043;28;20521;-77
2022/07/15 06:33:28;;;;;;;4.03;2.33;;;16.10;99.90;;;;;;5074902;28;20460;-77
2022/07/15 06:35:55;;;;;;;3.50;1.37;;;16.10;99.90;;;;;;5075502;28;20471;-77
2022/07/15 06:38:22;;;;;;;5.20;1.60;;;16.10;99.90;;;;;;5074052;28;20453;-77
2022/07/15 06:40:49;;;;;;;1.63;1.40;;;16.10;99.90;;;;;;5075135;28;20468;-77
2022/07/15 06:43:17;;;;;;;4.50;2.53;;;16.10;99.90;;;;;;5076244;28;20469;-77
2022/07/15 06:45:43;;;;;;;1.77;1.40;;;16.10;99.90;;;;;;5075711;28;20538;-77
2022/07/15 06:48:10;;;;;;;3.93;1.30;;;16.20;99.90;;;;;;5074161;28;20962;-77
2022/07/15 06:50:37;;;;;;;3.47;1.40;;;16.20;99.90;;;;;;5074439;28;20815;-77
2022/07/15 06:53:04;;;;;;;11.63;1.53;;;16.30;99.90;;;;;;5079124;28;20465;-78
2022/07/15 06:55:30;;;;;;;6.83;2.27;;;16.10;99.90;;;;;;5073735;28;20971;-77
2022/07/15 06:57:57;;;;;;;4.23;1.53;;;16.30;99.90;;;;;;5073774;28;20815;-77
2022/07/15 07:00:25;;;;;;;6.67;1.97;;;16.10;99.90;;;;;;5073345;28;20456;-77
2022/07/15 07:02:52;;;;;;;10.23;2.10;;;16.30;99.90;;;;;;5073576;28;20469;-77
2022/07/15 07:05:19;;;;;;;4.57;1.57;;;16.40;99.90;;;;;;5073866;28;20503;-78
2022/07/15 07:07:46;;;;;;;4.43;2.00;;;16.50;99.90;;;;;;5073442;28;20471;-78
2022/07/15 07:10:13;;;;;;;7.57;1.80;;;16.60;99.90;;;;;;5073347;28;20464;-77
2022/07/15 07:12:40;;;;;;;2.07;1.30;;;16.80;99.90;;;;;;5072459;28;20484;-77
2022/07/15 07:15:07;;;;;;;7.33;2.43;;;16.80;99.90;;;;;;5073116;28;20429;-77
2022/07/15 07:17:36;;;;;;;10.23;2.30;;;16.80;99.90;;;;;;5073066;28;20449;-77
2022/07/15 07:20:03;;;;;;;3.63;1.87;;;16.80;99.90;;;;;;5073282;28;20464;-77
2022/07/15 07:22:30;;;;;;;10.10;1.70;;;17.00;99.90;;;;;;5073851;28;20456;-78
2022/07/15 07:24:58;;;;;;;4.07;2.03;;;16.90;99.90;;;;;;5073769;28;20481;-78
2022/07/15 07:27:25;;;;;;;4.67;1.77;;;16.80;99.90;;;;;;5073124;28;20453;-77
2022/07/15 07:29:51;;;;;;;4.20;1.87;;;16.80;99.90;;;;;;5075356;28;20449;-78
2022/07/15 07:32:18;;;;;;;2.63;1.70;;;16.90;99.90;;;;;;5073207;28;20827;-77
2022/07/15 07:34:46;;;;;;;3.67;1.37;;;17.00;99.90;;;;;;5073343;28;20966;-78
2022/07/15 07:37:13;;;;;;;2.20;1.40;;;16.90;99.90;;;;;;5073089;28;20813;-78
2022/07/15 07:39:40;;;;;;;5.50;1.87;;;16.80;99.90;;;;;;5074332;28;20445;-78
2022/07/15 07:42:06;;;;;;;4.93;2.73;;;16.80;99.90;;;;;;5073767;28;20448;-77
2022/07/15 07:44:33;;;;;;;5.00;1.60;;;16.80;99.90;;;;;;5073123;28;20831;-76
2022/07/15 07:47:00;;;;;;;4.23;1.97;;;16.90;99.90;;;;;;5073447;28;20485;-79
2022/07/15 07:49:27;;;;;;;3.27;1.60;;;17.00;99.90;;;;;;5076459;28;20448;-77
2022/07/15 07:51:55;;;;;;;7.37;1.87;;;17.00;99.90;;;;;;5075037;28;20452;-78
2022/07/15 07:54:21;;;;;;;6.40;2.10;;;17.10;99.90;;;;;;5077301;28;20975;-78
2022/07/15 07:56:48;;;;;;;2.90;1.50;;;17.10;99.90;;;;;;5075145;28;20480;-77
2022/07/15 07:59:15;;;;;;;9.37;1.77;;;17.00;99.90;;;;;;5076238;28;20955;-78
2022/07/15 08:01:42;;;;;;;6.53;1.70;;;17.40;99.90;;;;;;5076587;28;20441;-78
2022/07/15 08:04:09;;;;;;;2.60;1.40;;;17.10;99.90;;;;;;5074084;28;20460;-78
2022/07/15 08:06:38;;;;;;;2.03;1.40;;;17.30;99.90;;;;;;5075493;28;20576;-77
2022/07/15 08:09:06;;;;;;;3.20;1.73;;;17.40;99.90;;;;;;5074435;28;20522;-77
2022/07/15 08:11:33;;;;;;;5.00;1.83;;;17.40;99.90;;;;;;5073248;28;20440;-78
2022/07/15 08:13:59;;;;;;;4.77;1.73;;;17.40;99.90;;;;;;5077217;28;20483;-78
2022/07/15 08:16:27;;;;;;;3.17;1.30;;;17.30;99.90;;;;;;5075162;28;20445;-78
2022/07/15 08:18:54;;;;;;;5.40;1.83;;;17.20;99.90;;;;;;5073806;28;20449;-77
2022/07/15 08:21:20;;;;;;;7.90;1.70;;;17.00;99.90;;;;;;5073262;28;20496;-78
2022/07/15 08:23:47;;;;;;;5.23;1.47;;;17.10;99.90;;;;;;5073286;28;20491;-77
2022/07/15 08:26:22;;;;;;;4.10;1.80;;;17.10;99.90;;;;;;5075945;28;20480;-77
2022/07/15 08:28:49;;;;;;;1.97;1.40;;;17.20;99.90;;;;;;5076305;28;20481;-77
2022/07/15 08:31:16;;;;;;;5.00;1.60;;;17.20;99.90;;;;;;5076462;28;20441;-77
2022/07/15 08:33:43;;;;;;;4.60;1.53;;;17.20;99.90;;;;;;5075868;28;20469;-77
2022/07/15 08:36:10;;;;;;;2.07;1.30;;;17.30;99.90;;;;;;5076453;28;20444;-78
2022/07/15 08:38:36;;;;;;;3.27;1.27;;;17.40;99.90;;;;;;5076785;28;20435;-79
2022/07/15 08:41:03;;;;;;;2.40;1.57;;;17.50;99.90;;;;;;5079896;28;20822;-78
2022/07/15 08:43:32;;;;;;;5.33;1.40;;;17.60;99.90;;;;;;5077826;28;20496;-77
2022/07/15 08:45:59;;;;;;;1.73;1.40;;;17.60;99.90;;;;;;5076564;28;20472;-78
2022/07/15 08:48:29;;;;;;;1.37;0.93;;;17.70;99.90;;;;;;5076824;28;20484;-78
2022/07/15 08:50:56;;;;;;;2.20;1.37;;;17.60;99.90;;;;;;5077649;28;20441;-76
2022/07/15 08:53:23;;;;;;;1.67;1.30;;;17.70;99.90;;;;;;5076857;28;20468;-79
2022/07/15 08:55:50;;;;;;;2.07;1.50;;;17.60;99.90;;;;;;5075982;28;20440;-77
2022/07/15 08:58:17;;;;;;;1.50;1.40;;;17.50;99.90;;;;;;5076175;28;20807;-78
2022/07/15 09:00:45;;;;;;;1.87;1.30;;;17.50;99.90;;;;;;5076440;28;20943;-77
2022/07/15 09:03:13;;;;;;;2.70;1.57;;;17.50;99.90;;;;;;5075714;28;20568;-77
2022/07/15 09:05:39;;;;;;;1.40;1.20;;;17.50;99.90;;;;;;5075901;28;20477;-78
2022/07/15 09:08:10;;;;;;;5.67;1.70;;;17.60;99.90;;;;;;5079700;28;20448;-78
2022/07/15 09:10:48;;;;;;;6.80;1.40;;;17.60;99.90;;;;;;5079520;28;20475;-78
2022/07/15 09:13:27;;;;;;;3.77;1.13;;;17.80;99.90;;;;;;5077890;28;20481;-78
2022/07/15 09:15:57;;;;;;;2.50;1.87;;;17.90;99.90;;;;;;5075777;28;20425;-77
2022/07/15 09:18:26;;;;;;;1.50;1.40;;;18.00;99.90;;;;;;5075965;28;20873;-77
2022/07/15 09:20:53;;;;;;;6.00;1.60;;;18.20;99.90;;;;;;5077113;28;20444;-78
2022/07/15 09:23:29;;;;;;;1.90;1.20;;;18.20;99.90;;;;;;5076773;28;20469;-78
2022/07/15 09:25:56;;;;;;;3.90;2.00;;;18.20;99.90;;;;;;5076670;28;20511;-78
2022/07/15 09:28:40;;;;;;;1.20;1.10;;;18.10;99.90;;;;;;5075480;28;20487;-79
2022/07/15 09:34:00;;;;;;;3.90;1.57;;;17.70;99.90;;;;;;5075176;28;20955;-78
2022/07/15 09:36:29;;;;;;;2.50;1.30;;;17.60;99.90;;;;;;5074842;28;20792;-78
2022/07/15 09:38:57;;;;;;;4.30;1.30;;;17.70;99.90;;;;;;5075752;28;20437;-77
2022/07/15 09:41:30;;;;;;;2.57;1.63;;;17.80;99.90;;;;;;5074877;28;20764;-77
2022/07/15 09:43:59;;;;;;;2.73;1.33;;;17.90;99.90;;;;;;5074878;28;20476;-77
2022/07/15 09:46:29;;;;;;;2.63;1.17;;;17.90;99.90;;;;;;5074464;28;20484;-77
2022/07/15 09:48:56;;;;;;;3.37;1.60;;;;;;;;;;5075509;28;20445;-77
2022/07/15 09:51:24;;;;;;;2.20;1.40;;;17.90;99.90;;;;;;5075060;28;20460;-77
2022/07/15 09:53:51;;;;;;;5.30;1.57;;;17.90;99.90;;;;;;5074681;28;20469;-77
2022/07/15 09:56:25;;;;;;;4.10;1.83;;;17.90;99.90;;;;;;5074697;28;20468;-77
2022/07/15 09:58:53;;;;;;;3.43;1.67;;;18.10;99.90;;;;;;5074749;28;20435;-77
2022/07/15 10:01:19;;;;;;;3.50;1.27;;;18.20;99.90;;;;;;5074720;28;20447;-77
2022/07/15 10:03:50;;;;;;;5.00;1.40;;;18.30;99.90;;;;;;5074712;28;20464;-78
2022/07/15 10:06:17;;;;;;;3.27;1.47;;;18.50;99.90;;;;;;5074009;28;20975;-77
2022/07/15 10:08:49;;;;;;;3.60;1.07;;;18.40;99.90;;;;;;5074161;28;20444;-78
2022/07/15 10:11:16;;;;;;;7.47;1.67;;;18.40;99.90;;;;;;5074173;28;20468;-77
2022/07/15 10:14:16;;;;;;;2.47;1.40;;;18.40;99.90;;;;;;5097050;22;20879;-75
2022/07/15 10:17:02;;;;;;;5.73;1.30;;;18.20;99.90;;;;;;5073788;28;20439;-75
2022/07/15 10:19:48;;;;;;;1.53;1.40;;;18.20;99.90;;;;;;5073581;28;20425;-75
2022/07/15 10:22:25;;;;;;;4.10;1.60;;;18.20;99.90;;;;;;5073446;28;20429;-76
2022/07/15 10:25:08;;;;;;;1.83;1.20;;;18.20;99.90;;;;;;5073148;28;20480;-75
2022/07/15 10:27:46;;;;;;;2.00;1.20;;;18.20;99.90;;;;;;5075105;28;20476;-76
2022/07/15 10:30:18;;;;;;;2.50;1.33;;;18.40;99.90;;;;;;5073808;28;20476;-76
2022/07/15 10:33:14;;;;;;;1.00;0.90;;;18.50;99.90;;;;;;5072818;28;20433;-75
2022/07/15 10:35:45;;;;;;;7.30;3.43;;;18.50;99.90;;;;;;5074276;28;20429;-76
2022/07/15 10:38:31;;;;;;;4.60;2.13;;;18.60;99.90;;;;;;5073198;28;20800;-77
2022/07/15 10:41:03;;;;;;;2.50;1.20;;;18.50;99.90;;;;;;5073569;28;20443;-75
2022/07/15 10:43:45;;;;;;;2.23;1.47;;;18.50;99.90;;;;;;5073021;28;20967;-76
2022/07/15 10:46:21;;;;;;;2.10;1.00;;;18.50;99.90;;;;;;5073179;28;20501;-76
2022/07/15 10:48:49;;;;;;;1.83;1.50;;;18.50;99.90;;;;;;5073933;28;20425;-76
2022/07/15 10:51:48;;;;;;;3.20;1.10;;;18.60;99.90;;;;;;5073750;28;20445;-76
2022/07/15 10:54:41;;;;;;;6.37;1.70;;;18.70;99.90;;;;;;5072790;28;20578;-75
2022/07/15 10:57:08;;;;;;;3.17;1.47;;;18.60;99.90;;;;;;5073258;28;20468;-75
2022/07/15 10:59:41;;;;;;;3.17;1.40;;;18.30;99.90;;;;;;5072813;28;20441;-75
2022/07/15 11:02:16;;;;;;;1.80;1.53;;;18.40;99.90;;;;;;5072693;28;20532;-75
2022/07/15 11:04:44;;;;;;;2.53;1.33;;;18.60;99.90;;;;;;5073059;28;20468;-75
2022/07/15 11:07:31;;;;;;;2.43;1.00;;;18.60;99.90;;;;;;5072314;28;20480;-74
2022/07/15 11:10:14;;;;;;;2.67;1.40;;;18.40;99.90;;;;;;5073061;28;20483;-75
2022/07/15 11:13:00;;;;;;;1.43;1.30;;;18.60;99.90;;;;;;5072865;28;20845;-74
2022/07/15 11:15:27;;;;;;;1.67;1.37;;;18.60;99.90;;;;;;5072683;28;20801;-75
2022/07/15 11:17:57;;;;;;;2.57;1.20;;;18.70;99.90;;;;;;5072745;28;20931;-76
2022/07/15 11:20:26;;;;;;;1.77;1.27;;;18.80;99.90;;;;;;5072649;28;20532;-75
2022/07/15 11:22:56;;;;;;;1.83;1.13;;;19.10;99.90;;;;;;5072575;28;20444;-75
2022/07/15 11:25:25;;;;;;;3.73;1.70;;;18.90;99.90;;;;;;5073353;28;20448;-76
2022/07/15 11:28:01;;;;;;;2.67;0.93;;;19.10;99.90;;;;;;5073094;28;20487;-75
2022/07/15 11:30:28;;;;;;;3.53;1.70;;;19.00;99.90;;;;;;5073496;28;20516;-74
2022/07/15 11:32:57;;;;;;;7.23;1.10;;;19.00;99.90;;;;;;5073232;28;20452;-76
2022/07/15 11:35:25;;;;;;;2.70;1.43;;;19.00;99.90;;;;;;5073360;28;20473;-76
2022/07/15 11:38:00;;;;;;;2.50;1.27;;;19.10;99.90;;;;;;5073213;28;20440;-75
2022/07/15 11:46:04;;;;;;;3.13;1.40;;;19.20;99.90;;;;;;5072663;28;20761;-75
2022/07/15 11:48:36;;;;;;;3.23;1.83;;;19.20;99.90;;;;;;5072450;28;20966;-75
2022/07/15 11:51:03;;;;;;;5.60;1.50;;;19.20;99.90;;;;;;5073051;28;20498;-75
2022/07/15 11:53:36;;;;;;;4.33;2.30;;;19.20;99.90;;;;;;5072649;28;20469;-76
2022/07/15 11:56:03;;;;;;;4.47;1.80;;;19.00;99.90;;;;;;5072851;28;20468;-75
2022/07/15 11:58:33;;;;;;;5.33;1.40;;;19.10;99.90;;;;;;5072758;28;20444;-75
2022/07/15 12:01:01;;;;;;;3.10;1.67;;;19.20;99.90;;;;;;5076168;28;20471;-74
2022/07/15 12:03:33;;;;;;;4.70;2.00;;;19.30;99.90;;;;;;5076004;28;20464;-75
2022/07/15 12:06:09;;;;;;;4.03;1.23;;;19.30;99.90;;;;;;5076205;28;20519;-74
2022/07/15 12:08:40;;;;;;;2.37;1.10;;;19.30;99.90;;;;;;5076696;28;20436;-75
2022/07/15 12:11:15;;;;;;;2.83;1.50;;;19.30;99.90;;;;;;5076004;28;20468;-75
2022/07/15 12:13:45;;;;;;;1.57;1.10;;;19.00;99.90;;;;;;5076268;28;20472;-75
2022/07/15 12:16:12;;;;;;;2.97;1.20;;;19.00;99.90;;;;;;5075987;28;20495;-76
2022/07/15 12:18:40;;;;;;;4.10;1.67;;;19.00;99.90;;;;;;5078795;28;20453;-80
2022/07/15 12:21:07;;;;;;;3.67;1.57;;;19.10;99.90;;;;;;5086750;28;20448;-77
2022/07/15 12:23:34;;;;;;;1.60;1.13;;;19.30;99.90;;;;;;5076259;28;20468;-76
2022/07/15 12:26:08;;;;;;;1.00;0.90;;;19.50;99.90;;;;;;5075631;28;20459;-76
2022/07/15 12:28:35;;;;;;;2.83;1.10;;;19.50;99.90;;;;;;5076151;28;20429;-76
2022/07/15 12:31:03;;;;;;;3.63;1.53;;;19.70;99.90;;;;;;5076020;28;20562;-77
2022/07/15 12:33:35;;;;;;;2.70;1.60;;;19.80;99.90;;;;;;5075900;28;20839;-75
2022/07/15 12:36:16;;;;;;;4.13;1.50;;;19.90;99.90;;;;;;5075655;28;20425;-77
2022/07/15 12:38:43;;;;;;;1.67;1.10;;;20.00;99.90;;;;;;5075321;28;20432;-76
2022/07/15 12:41:24;;;;;;;4.90;1.60;;;19.90;99.90;;;;;;5075639;28;20436;-76
2022/07/15 12:43:53;;;;;;;5.00;1.10;;;19.90;99.90;;;;;;5075837;28;20472;-76
2022/07/15 12:46:20;;;;;;;6.17;2.20;;;19.80;99.90;;;;;;5075759;28;20444;-76
2022/07/15 12:48:48;;;;;;;1.60;1.10;;;19.70;99.90;;;;;;5076644;28;20449;-76
2022/07/15 12:51:16;;;;;;;3.30;1.30;;;19.60;99.90;;;;;;5075664;28;20452;-76
2022/07/15 12:53:43;;;;;;;1.10;1.00;;;19.50;99.90;;;;;;5076019;28;20984;-76
2022/07/15 12:56:13;;;;;;;2.77;0.97;;;19.50;99.90;;;;;;5075802;28;20445;-76
2022/07/15 12:58:40;;;;;;;4.03;1.10;;;19.30;99.90;;;;;;5077308;28;20910;-77
2022/07/15 13:01:09;;;;;;;2.90;1.30;;;19.20;99.90;;;;;;5078954;28;20452;-76
2022/07/15 13:03:36;;;;;;;1.73;0.90;;;19.00;99.90;;;;;;5078461;28;20465;-76
2022/07/15 13:06:03;;;;;;;3.00;1.10;;;18.90;99.90;;;;;;5077730;28;20452;-76
2022/07/15 13:08:33;;;;;;;2.80;1.53;;;19.10;99.90;;;;;;5077408;28;20477;-76
2022/07/15 13:11:01;;;;;;;5.10;1.60;;;19.30;99.90;;;;;;5075874;28;20430;-76